sensor_id;sensor_type;location;lat;lon;timestamp;pressure;altitude;pressure_sealevel;temperature;humidity
64080;BME280;51042;49.696;10.808;2023-02-03T00:00:30;99354.00;;;4.49;100.00
64080;BME280;51042;49.696;10.808;2023-02-03T00:02:56;99354.00;;;4.49;100.00
64080;BME280;51042;49.696;10.808;2023-02-03T00:05:21;99347.41;;;4.50;100.00
64080;BME280;51042;49.696;10.808;2023-02-03T00:07:46;99345.47;;;4.51;100.00
64080;BME280;51042;49.696;10.808;2023-02-03T00:10:12;99350.13;;;4.50;100.00
64080;BME280;51042;49.696;10.808;2023-02-03T00:12:38;99363.72;;;4.50;100.00
64080;BME280;51042;49.696;10.808;2023-02-03T00:15:03;99354.00;;;4.49;100.00
64080;BME280;51042;49.696;10.808;2023-02-03T00:17:28;99351.66;;;4.48;100.00
64080;BME280;51042;49.696;10.808;2023-02-03T00:19:54;99354.38;;;4.48;100.00
64080;BME280;51042;49.696;10.808;2023-02-03T00:22:19;99349.31;;;4.46;100.00
64080;BME280;51042;49.696;10.808;2023-02-03T00:24:45;99341.91;;;4.47;100.00
64080;BME280;51042;49.696;10.808;2023-02-03T00:27:10;99352.78;;;4.47;100.00
64080;BME280;51042;49.696;10.808;2023-02-03T00:29:35;99334.16;;;4.45;100.00
64080;BME280;51042;49.696;10.808;2023-02-03T00:32:01;99342.31;;;4.45;100.00
64080;BME280;51042;49.696;10.808;2023-02-03T00:34:27;99338.81;;;4.45;100.00
64080;BME280;51042;49.696;10.808;2023-02-03T00:36:52;99335.31;;;4.44;100.00
64080;BME280;51042;49.696;10.808;2023-02-03T00:39:17;99336.47;;;4.43;100.00
64080;BME280;51042;49.696;10.808;2023-02-03T00:41:43;99350.47;;;4.45;100.00
64080;BME280;51042;49.696;10.808;2023-02-03T00:44:08;99345.81;;;4.46;100.00
64080;BME280;51042;49.696;10.808;2023-02-03T00:46:33;99340.75;;;4.44;100.00
64080;BME280;51042;49.696;10.808;2023-02-03T00:49:02;99332.63;;;4.48;100.00
64080;BME280;51042;49.696;10.808;2023-02-03T00:51:28;99340.41;;;4.49;100.00
64080;BME280;51042;49.696;10.808;2023-02-03T00:53:53;99333.03;;;4.50;100.00
64080;BME280;51042;49.696;10.808;2023-02-03T00:56:21;99331.47;;;4.49;100.00
64080;BME280;51042;49.696;10.808;2023-02-03T00:58:46;99334.19;;;4.49;100.00
64080;BME280;51042;49.696;10.808;2023-02-03T01:01:14;99333.78;;;4.47;100.00
64080;BME280;51042;49.696;10.808;2023-02-03T01:03:40;99337.28;;;4.47;100.00
64080;BME280;51042;49.696;10.808;2023-02-03T01:06:13;99340.03;;;4.51;100.00
64080;BME280;51042;49.696;10.808;2023-02-03T01:08:39;99343.56;;;4.51;100.00
64080;BME280;51042;49.696;10.808;2023-02-03T01:11:14;99351.69;;;4.51;100.00
64080;BME280;51042;49.696;10.808;2023-02-03T01:13:41;99352.09;;;4.53;100.00
64080;BME280;51042;49.696;10.808;2023-02-03T01:16:07;99352.09;;;4.53;100.00
64080;BME280;51042;49.696;10.808;2023-02-03T01:18:32;99347.44;;;4.54;100.00
64080;BME280;51042;49.696;10.808;2023-02-03T01:21:03;99342.44;;;4.56;100.00
64080;BME280;51042;49.696;10.808;2023-02-03T01:23:28;99346.28;;;4.55;100.00
64080;BME280;51042;49.696;10.808;2023-02-03T01:25:54;99342.00;;;4.54;100.00
64080;BME280;51042;49.696;10.808;2023-02-03T01:28:19;99344.72;;;4.54;100.00
64080;BME280;51042;49.696;10.808;2023-02-03T01:30:44;99339.72;;;4.56;100.00
64080;BME280;51042;49.696;10.808;2023-02-03T01:33:18;99342.44;;;4.56;100.00
64080;BME280;51042;49.696;10.808;2023-02-03T01:35:44;99342.44;;;4.56;100.00
64080;BME280;51042;49.696;10.808;2023-02-03T01:38:09;99330.00;;;4.55;100.00
64080;BME280;51042;49.696;10.808;2023-02-03T01:40:43;99330.41;;;4.57;100.00
64080;BME280;51042;49.696;10.808;2023-02-03T01:43:09;99321.47;;;4.57;100.00
64080;BME280;51042;49.696;10.808;2023-02-03T01:45:35;99317.59;;;4.58;100.00
64080;BME280;51042;49.696;10.808;2023-02-03T01:48:00;99311.38;;;4.57;100.00
64080;BME280;51042;49.696;10.808;2023-02-03T01:50:27;99309.44;;;4.58;100.00
64080;BME280;51042;49.696;10.808;2023-02-03T01:53:05;99309.06;;;4.59;100.00
64080;BME280;51042;49.696;10.808;2023-02-03T01:55:42;99306.75;;;4.61;100.00
64080;BME280;51042;49.696;10.808;2023-02-03T01:58:14;99299.75;;;4.60;100.00
64080;BME280;51042;49.696;10.808;2023-02-03T02:00:43;99285.38;;;4.60;100.00
64080;BME280;51042;49.696;10.808;2023-02-03T02:03:09;99287.31;;;4.59;100.00
64080;BME280;51042;49.696;10.808;2023-02-03T02:07:59;99301.31;;;4.61;100.00
64080;BME280;51042;49.696;10.808;2023-02-03T02:10:27;99289.66;;;4.61;100.00
64080;BME280;51042;49.696;10.808;2023-02-03T02:12:54;99275.28;;;4.60;100.00
64080;BME280;51042;49.696;10.808;2023-02-03T02:15:20;99288.09;;;4.60;100.00
64080;BME280;51042;49.696;10.808;2023-02-03T02:20:37;99285.06;;;4.65;100.00
64080;BME280;51042;49.696;10.808;2023-02-03T02:33:30;99277.34;;;4.70;100.00
64080;BME280;51042;49.696;10.808;2023-02-03T02:46:23;99277.28;;;4.67;100.00
64080;BME280;51042;49.696;10.808;2023-02-03T02:48:54;99270.28;;;4.66;100.00
64080;BME280;51042;49.696;10.808;2023-02-03T02:51:21;99273.78;;;4.66;100.00
64080;BME280;51042;49.696;10.808;2023-02-03T02:53:52;99274.56;;;4.67;100.00
64080;BME280;51042;49.696;10.808;2023-02-03T02:56:18;99286.22;;;4.67;100.00
64080;BME280;51042;49.696;10.808;2023-02-03T02:58:44;99294.38;;;4.67;100.00
64080;BME280;51042;49.696;10.808;2023-02-03T03:01:12;99294.03;;;4.69;100.00
64080;BME280;51042;49.696;10.808;2023-02-03T03:03:37;99286.22;;;4.67;100.00
64080;BME280;51042;49.696;10.808;2023-02-03T03:06:17;99273.78;;;4.66;100.00
64080;BME280;51042;49.696;10.808;2023-02-03T03:08:47;99290.09;;;4.66;100.00
64080;BME280;51042;49.696;10.808;2023-02-03T03:11:14;99279.22;;;4.66;100.00
64080;BME280;51042;49.696;10.808;2023-02-03T03:13:41;99276.13;;;4.64;100.00
64080;BME280;51042;49.696;10.808;2023-02-03T03:16:09;99262.53;;;4.64;100.00
64080;BME280;51042;49.696;10.808;2023-02-03T03:18:36;99271.47;;;4.65;100.00
64080;BME280;51042;49.696;10.808;2023-02-03T03:21:03;99277.28;;;4.67;100.00
64080;BME280;51042;49.696;10.808;2023-02-03T03:23:48;99289.38;;;4.69;100.00
64080;BME280;51042;49.696;10.808;2023-02-03T03:28:47;99291.34;;;4.72;100.00
64080;BME280;51042;49.696;10.808;2023-02-03T03:31:13;99288.25;;;4.74;100.00
64080;BME280;51042;49.696;10.808;2023-02-03T03:33:39;99313.50;;;4.74;100.00
64080;BME280;51042;49.696;10.808;2023-02-03T03:38:40;99333.34;;;4.78;100.00
64080;BME280;51042;49.696;10.808;2023-02-03T03:41:14;99329.47;;;4.79;100.00
64080;BME280;51042;49.696;10.808;2023-02-03T03:43:43;99327.16;;;4.81;100.00
64080;BME280;51042;49.696;10.808;2023-02-03T03:46:12;99324.84;;;4.83;100.00
64080;BME280;51042;49.696;10.808;2023-02-03T03:48:40;99313.59;;;4.85;100.00
64080;BME280;51042;49.696;10.808;2023-02-03T03:51:13;99310.88;;;4.85;100.00
64080;BME280;51042;49.696;10.808;2023-02-03T03:53:39;99298.06;;;4.85;100.00
64080;BME280;51042;49.696;10.808;2023-02-03T03:56:07;99301.16;;;4.84;100.00
64080;BME280;51042;49.696;10.808;2023-02-03T03:58:34;99291.06;;;4.84;100.00
64080;BME280;51042;49.696;10.808;2023-02-03T04:01:02;99284.84;;;4.84;100.00
64080;BME280;51042;49.696;10.808;2023-02-03T04:03:29;99288.72;;;4.83;100.00
64080;BME280;51042;49.696;10.808;2023-02-03T04:05:56;99286.78;;;4.83;100.00
64080;BME280;51042;49.696;10.808;2023-02-03T04:08:22;99277.47;;;4.84;100.00
64080;BME280;51042;49.696;10.808;2023-02-03T04:10:47;99277.81;;;4.83;100.00
64080;BME280;51042;49.696;10.808;2023-02-03T04:13:12;99264.63;;;4.81;100.00
64080;BME280;51042;49.696;10.808;2023-02-03T04:15:39;99270.06;;;4.81;100.00
64080;BME280;51042;49.696;10.808;2023-02-03T04:18:05;99258.41;;;4.81;100.00
64080;BME280;51042;49.696;10.808;2023-02-03T04:20:30;99250.25;;;4.81;100.00
64080;BME280;51042;49.696;10.808;2023-02-03T04:22:56;99262.28;;;4.80;100.00
64080;BME280;51042;49.696;10.808;2023-02-03T04:25:22;99268.50;;;4.80;100.00
64080;BME280;51042;49.696;10.808;2023-02-03T04:27:47;99270.44;;;4.80;100.00
64080;BME280;51042;49.696;10.808;2023-02-03T04:30:12;99256.06;;;4.79;100.00
64080;BME280;51042;49.696;10.808;2023-02-03T04:32:38;99247.91;;;4.79;100.00
64080;BME280;51042;49.696;10.808;2023-02-03T04:35:04;99242.47;;;4.79;100.00
64080;BME280;51042;49.696;10.808;2023-02-03T04:37:29;99242.03;;;4.77;100.00
64080;BME280;51042;49.696;10.808;2023-02-03T04:39:54;99227.28;;;4.75;100.00
64080;BME280;51042;49.696;10.808;2023-02-03T04:42:20;99213.69;;;4.75;100.00
64080;BME280;51042;49.696;10.808;2023-02-03T04:44:45;99214.06;;;4.73;100.00
64080;BME280;51042;49.696;10.808;2023-02-03T04:47:10;99232.66;;;4.71;100.00
64080;BME280;51042;49.696;10.808;2023-02-03T04:49:36;99251.69;;;4.71;100.00
64080;BME280;51042;49.696;10.808;2023-02-03T04:52:01;99246.25;;;4.71;100.00
64080;BME280;51042;49.696;10.808;2023-02-03T04:54:26;99252.47;;;4.72;100.00
64080;BME280;51042;49.696;10.808;2023-02-03T04:56:51;99257.91;;;4.72;100.00
64080;BME280;51042;49.696;10.808;2023-02-03T04:59:16;99229.94;;;4.71;100.00
64080;BME280;51042;49.696;10.808;2023-02-03T05:01:41;99220.25;;;4.70;100.00
64080;BME280;51042;49.696;10.808;2023-02-03T05:04:07;99225.28;;;4.72;100.00
64080;BME280;51042;49.696;10.808;2023-02-03T05:06:32;99237.31;;;4.71;100.00
64080;BME280;51042;49.696;10.808;2023-02-03T05:08:57;99238.53;;;4.73;100.00
64080;BME280;51042;49.696;10.808;2023-02-03T05:11:22;99242.75;;;4.71;100.00
64080;BME280;51042;49.696;10.808;2023-02-03T05:13:48;99255.97;;;4.72;100.00
64080;BME280;51042;49.696;10.808;2023-02-03T05:16:13;99268.41;;;4.70;100.00
64080;BME280;51042;49.696;10.808;2023-02-03T05:18:38;99267.22;;;4.71;100.00
64080;BME280;51042;49.696;10.808;2023-02-03T05:21:05;99278.50;;;4.69;100.00
64080;BME280;51042;49.696;10.808;2023-02-03T05:23:30;99290.94;;;4.70;100.00
64080;BME280;51042;49.696;10.808;2023-02-03T05:25:55;99285.50;;;4.70;100.00
64080;BME280;51042;49.696;10.808;2023-02-03T05:28:20;99280.44;;;4.72;100.00
64080;BME280;51042;49.696;10.808;2023-02-03T05:30:46;99295.97;;;4.72;100.00
64080;BME280;51042;49.696;10.808;2023-02-03T05:33:11;99299.50;;;4.72;100.00
64080;BME280;51042;49.696;10.808;2023-02-03T05:35:36;99294.84;;;4.73;100.00
64080;BME280;51042;49.696;10.808;2023-02-03T05:38:01;99294.03;;;4.72;100.00
64080;BME280;51042;49.696;10.808;2023-02-03T05:40:27;99298.69;;;4.72;100.00
64080;BME280;51042;49.696;10.808;2023-02-03T05:43:11;99284.72;;;4.70;100.00
64080;BME280;51042;49.696;10.808;2023-02-03T05:45:36;99274.22;;;4.68;100.00
64080;BME280;51042;49.696;10.808;2023-02-03T05:48:01;99266.06;;;4.68;100.00
64080;BME280;51042;49.696;10.808;2023-02-03T05:50:27;99261.41;;;4.69;100.00
64080;BME280;51042;49.696;10.808;2023-02-03T05:52:57;99265.63;;;4.66;100.00
64080;BME280;51042;49.696;10.808;2023-02-03T05:55:22;99267.22;;;4.67;100.00
64080;BME280;51042;49.696;10.808;2023-02-03T05:57:47;99247.41;;;4.67;100.00
64080;BME280;51042;49.696;10.808;2023-02-03T06:00:12;99232.63;;;4.64;100.00
64080;BME280;51042;49.696;10.808;2023-02-03T06:02:38;99218.63;;;4.62;100.00
64080;BME280;51042;49.696;10.808;2023-02-03T06:05:04;99208.91;;;4.61;100.00
64080;BME280;51042;49.696;10.808;2023-02-03T06:07:29;99204.63;;;4.60;100.00
64080;BME280;51042;49.696;10.808;2023-02-03T06:09:54;99210.06;;;4.60;100.00
64080;BME280;51042;49.696;10.808;2023-02-03T06:12:19;99204.63;;;4.60;100.00
64080;BME280;51042;49.696;10.808;2023-02-03T06:14:44;99206.19;;;4.61;100.00
64080;BME280;51042;49.696;10.808;2023-02-03T06:17:10;99229.13;;;4.64;100.00
64080;BME280;51042;49.696;10.808;2023-02-03T06:19:35;99221.34;;;4.62;100.00
64080;BME280;51042;49.696;10.808;2023-02-03T06:22:00;99212.06;;;4.67;100.00
64080;BME280;51042;49.696;10.808;2023-02-03T06:24:25;99194.19;;;4.66;100.00
64080;BME280;51042;49.696;10.808;2023-02-03T06:26:50;99186.41;;;4.64;100.00
64080;BME280;51042;49.696;10.808;2023-02-03T06:29:16;99193.78;;;4.64;100.00
64080;BME280;51042;49.696;10.808;2023-02-03T06:31:41;99186.81;;;4.66;100.00
64080;BME280;51042;49.696;10.808;2023-02-03T06:34:06;99180.19;;;4.64;100.00
64080;BME280;51042;49.696;10.808;2023-02-03T06:36:31;99184.06;;;4.63;100.00
64080;BME280;51042;49.696;10.808;2023-02-03T06:38:56;99193.38;;;4.62;100.00
64080;BME280;51042;49.696;10.808;2023-02-03T06:41:23;99207.38;;;4.64;100.00
64080;BME280;51042;49.696;10.808;2023-02-03T06:43:52;99213.22;;;4.66;100.00
64080;BME280;51042;49.696;10.808;2023-02-03T06:46:17;99195.34;;;4.65;100.00
64080;BME280;51042;49.696;10.808;2023-02-03T06:48:42;99191.44;;;4.62;100.00
64080;BME280;51042;49.696;10.808;2023-02-03T06:51:08;99182.50;;;4.62;100.00
64080;BME280;51042;49.696;10.808;2023-02-03T06:53:33;99172.41;;;4.62;100.00
64080;BME280;51042;49.696;10.808;2023-02-03T06:55:58;99195.75;;;4.67;100.00
64080;BME280;51042;49.696;10.808;2023-02-03T06:58:26;99192.66;;;4.68;100.00
64080;BME280;51042;49.696;10.808;2023-02-03T07:00:54;99156.16;;;4.69;100.00
64080;BME280;51042;49.696;10.808;2023-02-03T07:03:19;99187.63;;;4.70;100.00
64080;BME280;51042;49.696;10.808;2023-02-03T07:05:44;99217.13;;;4.72;100.00
64080;BME280;51042;49.696;10.808;2023-02-03T07:08:09;99223.38;;;4.72;100.00
64080;BME280;51042;49.696;10.808;2023-02-03T07:10:34;99206.28;;;4.72;100.00
64080;BME280;51042;49.696;10.808;2023-02-03T07:13:06;99194.25;;;4.73;100.00
64080;BME280;51042;49.696;10.808;2023-02-03T07:15:31;99158.91;;;4.73;100.00
64080;BME280;51042;49.696;10.808;2023-02-03T07:17:56;99185.31;;;4.72;100.00
64080;BME280;51042;49.696;10.808;2023-02-03T07:20:22;99213.28;;;4.73;100.00
64080;BME280;51042;49.696;10.808;2023-02-03T07:22:51;99234.66;;;4.74;100.00
64080;BME280;51042;49.696;10.808;2023-02-03T07:25:16;99229.63;;;4.76;100.00
64080;BME280;51042;49.696;10.808;2023-02-03T07:27:42;99214.91;;;4.81;100.00
64080;BME280;51042;49.696;10.808;2023-02-03T07:30:07;99217.63;;;4.84;100.00
64080;BME280;51042;49.696;10.808;2023-02-03T07:32:33;99215.69;;;4.85;100.00
64080;BME280;51042;49.696;10.808;2023-02-03T07:34:58;99226.56;;;4.85;100.00
64080;BME280;51042;49.696;10.808;2023-02-03T07:37:25;99220.78;;;4.86;100.00
64080;BME280;51042;49.696;10.808;2023-02-03T07:39:50;99218.47;;;4.88;100.00
64080;BME280;51042;49.696;10.808;2023-02-03T07:42:15;99225.84;;;4.91;100.00
64080;BME280;51042;49.696;10.808;2023-02-03T07:44:40;99224.34;;;4.94;100.00
64080;BME280;51042;49.696;10.808;2023-02-03T07:47:06;99219.66;;;4.94;100.00
64080;BME280;51042;49.696;10.808;2023-02-03T07:49:31;99216.56;;;4.96;100.00
64080;BME280;51042;49.696;10.808;2023-02-03T07:51:56;99213.47;;;4.98;100.00
64080;BME280;51042;49.696;10.808;2023-02-03T07:54:21;99215.81;;;4.99;100.00
64080;BME280;51042;49.696;10.808;2023-02-03T07:56:48;99199.09;;;5.01;100.00
64080;BME280;51042;49.696;10.808;2023-02-03T07:59:15;99204.97;;;5.03;100.00
64080;BME280;51042;49.696;10.808;2023-02-03T08:01:40;99206.94;;;5.06;100.00
64080;BME280;51042;49.696;10.808;2023-02-03T08:04:05;99199.56;;;5.10;100.00
64080;BME280;51042;49.696;10.808;2023-02-03T08:06:31;99209.66;;;5.09;100.00
64080;BME280;51042;49.696;10.808;2023-02-03T08:08:56;99213.19;;;5.10;100.00
64080;BME280;51042;49.696;10.808;2023-02-03T08:11:21;99222.91;;;5.14;100.00
64080;BME280;51042;49.696;10.808;2023-02-03T08:13:46;99226.47;;;5.18;100.00
64080;BME280;51042;49.696;10.808;2023-02-03T08:16:12;99224.50;;;5.19;100.00
64080;BME280;51042;49.696;10.808;2023-02-03T08:18:37;99222.59;;;5.23;100.00
64080;BME280;51042;49.696;10.808;2023-02-03T08:21:02;99230.72;;;5.19;100.00
64080;BME280;51042;49.696;10.808;2023-02-03T08:23:28;99227.22;;;5.19;100.00
64080;BME280;51042;49.696;10.808;2023-02-03T08:25:54;99230.72;;;5.19;100.00
64080;BME280;51042;49.696;10.808;2023-02-03T08:28:19;99219.09;;;5.26;100.00
64080;BME280;51042;49.696;10.808;2023-02-03T08:30:44;99224.16;;;5.24;100.00
64080;BME280;51042;49.696;10.808;2023-02-03T08:33:09;99227.63;;;5.24;100.00
64080;BME280;51042;49.696;10.808;2023-02-03T08:35:35;99228.03;;;5.26;100.00
64080;BME280;51042;49.696;10.808;2023-02-03T08:38:00;99235.06;;;5.27;100.00
64080;BME280;51042;49.696;10.808;2023-02-03T08:40:25;99233.91;;;5.28;100.00
64080;BME280;51042;49.696;10.808;2023-02-03T08:42:50;99231.19;;;5.32;100.00
64080;BME280;51042;49.696;10.808;2023-02-03T08:45:15;99214.06;;;5.28;100.00
64080;BME280;51042;49.696;10.808;2023-02-03T08:47:41;99221.41;;;5.20;100.00
64080;BME280;51042;49.696;10.808;2023-02-03T08:50:06;99209.72;;;5.16;100.00
64080;BME280;51042;49.696;10.808;2023-02-03T08:52:32;99224.91;;;5.17;100.00
64080;BME280;51042;49.696;10.808;2023-02-03T08:54:57;99212.06;;;5.18;100.00
64080;BME280;51042;49.696;10.808;2023-02-03T08:57:22;99209.72;;;5.20;100.00
64080;BME280;51042;49.696;10.808;2023-02-03T08:59:47;99209.38;;;5.25;100.00
64080;BME280;51042;49.696;10.808;2023-02-03T09:02:14;99207.84;;;5.27;100.00
64080;BME280;51042;49.696;10.808;2023-02-03T09:04:40;99203.19;;;5.31;100.00
64080;BME280;51042;49.696;10.808;2023-02-03T09:07:06;99209.84;;;5.34;100.00
64080;BME280;51042;49.696;10.808;2023-02-03T09:09:31;99208.28;;;5.37;100.00
64080;BME280;51042;49.696;10.808;2023-02-03T09:11:56;99208.28;;;5.37;100.00
64080;BME280;51042;49.696;10.808;2023-02-03T09:14:27;99211.00;;;5.37;100.00
64080;BME280;51042;49.696;10.808;2023-02-03T09:16:52;99202.47;;;5.38;100.00
64080;BME280;51042;49.696;10.808;2023-02-03T09:19:17;99188.84;;;5.38;100.00
64080;BME280;51042;49.696;10.808;2023-02-03T09:21:42;99190.78;;;5.38;100.00
64080;BME280;51042;49.696;10.808;2023-02-03T09:24:07;99186.94;;;5.42;100.00
64080;BME280;51042;49.696;10.808;2023-02-03T09:26:33;99193.19;;;5.46;100.00
64080;BME280;51042;49.696;10.808;2023-02-03T09:28:58;99196.28;;;5.48;100.00
64080;BME280;51042;49.696;10.808;2023-02-03T09:31:23;99185.44;;;5.55;100.00
64080;BME280;51042;49.696;10.808;2023-02-03T09:33:48;99169.50;;;5.54;100.00
64080;BME280;51042;49.696;10.808;2023-02-03T09:36:14;99160.97;;;5.59;100.00
64080;BME280;51042;49.696;10.808;2023-02-03T09:38:39;99157.47;;;5.62;100.00
64080;BME280;51042;49.696;10.808;2023-02-03T09:44:26;99144.66;;;5.73;100.00
64080;BME280;51042;49.696;10.808;2023-02-03T09:46:25;99157.91;;;5.74;100.00
64080;BME280;51042;49.696;10.808;2023-02-03T09:48:53;99134.19;;;5.75;100.00
64080;BME280;51042;49.696;10.808;2023-02-03T09:51:21;99108.50;;;5.76;100.00
64080;BME280;51042;49.696;10.808;2023-02-03T09:53:49;99149.75;;;5.82;100.00
64080;BME280;51042;49.696;10.808;2023-02-03T09:56:21;99133.41;;;5.85;100.00
64080;BME280;51042;49.696;10.808;2023-02-03T09:58:47;99124.94;;;5.94;100.00
64080;BME280;51042;49.696;10.808;2023-02-03T10:01:12;99132.34;;;6.00;100.00
64080;BME280;51042;49.696;10.808;2023-02-03T10:03:53;99135.47;;;6.06;100.00
64080;BME280;51042;49.696;10.808;2023-02-03T10:06:32;99140.50;;;6.04;100.00
64080;BME280;51042;49.696;10.808;2023-02-03T10:19:12;99113.66;;;6.06;100.00
64080;BME280;51042;49.696;10.808;2023-02-03T10:21:43;99127.66;;;6.01;100.00
64080;BME280;51042;49.696;10.808;2023-02-03T10:24:29;99094.97;;;6.01;100.00
64080;BME280;51042;49.696;10.808;2023-02-03T10:26:58;99118.31;;;6.02;100.00
64080;BME280;51042;49.696;10.808;2023-02-03T10:29:40;99104.31;;;6.03;100.00
64080;BME280;51042;49.696;10.808;2023-02-03T10:32:10;99113.28;;;6.07;100.00
64080;BME280;51042;49.696;10.808;2023-02-03T10:34:36;99116.00;;;6.11;100.00
64080;BME280;51042;49.696;10.808;2023-02-03T10:37:02;99098.50;;;6.12;100.00
64080;BME280;51042;49.696;10.808;2023-02-03T10:39:40;99091.47;;;6.22;100.00
64080;BME280;51042;49.696;10.808;2023-02-03T10:42:06;99099.25;;;6.27;100.00
64080;BME280;51042;49.696;10.808;2023-02-03T10:47:08;99099.66;;;6.29;100.00
64080;BME280;51042;49.696;10.808;2023-02-03T10:49:38;99090.69;;;6.32;100.00
64080;BME280;51042;49.696;10.808;2023-02-03T10:52:03;99085.66;;;6.34;100.00
64080;BME280;51042;49.696;10.808;2023-02-03T10:54:32;99096.16;;;6.32;100.00
64080;BME280;51042;49.696;10.808;2023-02-03T10:57:02;99083.31;;;6.32;100.00
64080;BME280;51042;49.696;10.808;2023-02-03T10:59:29;99084.09;;;6.29;100.00
64080;BME280;51042;49.696;10.808;2023-02-03T11:01:55;99077.88;;;6.25;100.00
64080;BME280;51042;49.696;10.808;2023-02-03T11:04:30;99084.09;;;6.22;100.00
64080;BME280;51042;49.696;10.808;2023-02-03T11:07:00;99079.81;;;6.18;100.00
64080;BME280;51042;49.696;10.808;2023-02-03T11:09:36;99071.22;;;6.15;100.00
64080;BME280;51042;49.696;10.808;2023-02-03T11:14:35;99051.78;;;6.13;100.00
64080;BME280;51042;49.696;10.808;2023-02-03T11:17:04;99062.28;;;6.15;100.00
64080;BME280;51042;49.696;10.808;2023-02-03T11:19:31;99054.09;;;6.15;100.00
64080;BME280;51042;49.696;10.808;2023-02-03T11:21:56;99059.56;;;6.11;100.00
64080;BME280;51042;49.696;10.808;2023-02-03T11:24:23;99058.78;;;6.11;100.00
64080;BME280;51042;49.696;10.808;2023-02-03T11:29:15;99028.78;;;6.14;100.00
64080;BME280;51042;49.696;10.808;2023-02-03T11:31:41;99036.97;;;6.14;100.00
64080;BME280;51042;49.696;10.808;2023-02-03T11:34:17;99021.81;;;6.13;100.00
64080;BME280;51042;49.696;10.808;2023-02-03T11:36:44;99020.25;;;6.12;100.00
64080;BME280;51042;49.696;10.808;2023-02-03T11:41:37;99036.19;;;6.14;100.00
64080;BME280;51042;49.696;10.808;2023-02-03T11:44:10;99032.72;;;6.17;100.00
64080;BME280;51042;49.696;10.808;2023-02-03T11:46:37;99035.44;;;6.17;100.00
64080;BME280;51042;49.696;10.808;2023-02-03T11:49:06;99027.25;;;6.13;100.00
64080;BME280;51042;49.696;10.808;2023-02-03T11:54:41;99037.00;;;6.11;100.00
64080;BME280;51042;49.696;10.808;2023-02-03T11:57:27;99045.53;;;6.09;100.00
64080;BME280;51042;49.696;10.808;2023-02-03T12:00:03;99018.31;;;6.06;100.00
64080;BME280;51042;49.696;10.808;2023-02-03T12:05:41;99031.13;;;6.09;100.00
64080;BME280;51042;49.696;10.808;2023-02-03T12:08:16;99016.34;;;6.10;100.00
64080;BME280;51042;49.696;10.808;2023-02-03T12:10:46;99026.09;;;6.07;100.00
64080;BME280;51042;49.696;10.808;2023-02-03T12:16:34;99024.91;;;6.05;100.00
64080;BME280;51042;49.696;10.808;2023-02-03T12:18:36;99033.88;;;6.05;100.00
64080;BME280;51042;49.696;10.808;2023-02-03T12:21:23;99034.28;;;6.07;100.00
64080;BME280;51042;49.696;10.808;2023-02-03T12:26:34;99037.38;;;6.09;100.00
64080;BME280;51042;49.696;10.808;2023-02-03T12:29:13;99021.41;;;6.11;100.00
64080;BME280;51042;49.696;10.808;2023-02-03T12:36:57;98998.47;;;6.12;100.00
64080;BME280;51042;49.696;10.808;2023-02-03T12:39:30;98997.66;;;6.15;100.00
64080;BME280;51042;49.696;10.808;2023-02-03T12:42:00;98982.13;;;6.12;100.00
64080;BME280;51042;49.696;10.808;2023-02-03T12:44:36;98978.22;;;6.13;100.00
64080;BME280;51042;49.696;10.808;2023-02-03T12:50:20;98970.44;;;6.12;100.00
64080;BME280;51042;49.696;10.808;2023-02-03T12:57:40;99000.00;;;6.10;100.00
64080;BME280;51042;49.696;10.808;2023-02-03T13:00:18;98982.88;;;6.09;100.00
64080;BME280;51042;49.696;10.808;2023-02-03T13:02:48;98977.06;;;6.07;100.00
64080;BME280;51042;49.696;10.808;2023-02-03T13:05:23;98966.53;;;6.06;100.00
64080;BME280;51042;49.696;10.808;2023-02-03T13:11:40;98983.25;;;6.08;100.00
64080;BME280;51042;49.696;10.808;2023-02-03T13:13:41;98976.66;;;6.05;100.00
64080;BME280;51042;49.696;10.808;2023-02-03T13:16:09;98988.72;;;6.04;100.00
64080;BME280;51042;49.696;10.808;2023-02-03T13:18:36;98975.47;;;6.03;100.00
64080;BME280;51042;49.696;10.808;2023-02-03T13:21:02;98987.53;;;6.02;100.00
64080;BME280;51042;49.696;10.808;2023-02-03T13:23:27;98965.38;;;6.00;100.00
64080;BME280;51042;49.696;10.808;2023-02-03T13:26:05;98954.47;;;5.96;100.00
64080;BME280;51042;49.696;10.808;2023-02-03T13:28:45;98938.53;;;5.91;100.00
64080;BME280;51042;49.696;10.808;2023-02-03T13:31:17;98931.50;;;5.90;100.00
64080;BME280;51042;49.696;10.808;2023-02-03T13:41:41;98909.34;;;5.92;100.00
64080;BME280;51042;49.696;10.808;2023-02-03T13:44:12;98915.94;;;5.91;100.00
64080;BME280;51042;49.696;10.808;2023-02-03T13:46:40;98921.03;;;5.89;100.00
64080;BME280;51042;49.696;10.808;2023-02-03T13:49:05;98921.41;;;5.87;100.00
64080;BME280;51042;49.696;10.808;2023-02-03T13:51:34;98927.66;;;5.88;100.00
64080;BME280;51042;49.696;10.808;2023-02-03T13:54:00;98929.97;;;5.89;100.00
64080;BME280;51042;49.696;10.808;2023-02-03T13:56:27;98918.31;;;5.89;100.00
64080;BME280;51042;49.696;10.808;2023-02-03T14:01:37;98921.03;;;5.92;100.00
64080;BME280;51042;49.696;10.808;2023-02-03T14:04:04;98933.47;;;5.93;100.00
64080;BME280;51042;49.696;10.808;2023-02-03T14:09:02;98917.50;;;5.99;100.00
64080;BME280;51042;49.696;10.808;2023-02-03T14:16:33;98906.97;;;6.08;100.00
64080;BME280;51042;49.696;10.808;2023-02-03T14:18:58;98922.56;;;6.07;100.00
64080;BME280;51042;49.696;10.808;2023-02-03T14:21:23;98922.94;;;6.06;100.00
64080;BME280;51042;49.696;10.808;2023-02-03T14:23:51;98910.91;;;6.07;100.00
64080;BME280;51042;49.696;10.808;2023-02-03T14:26:22;98884.03;;;6.05;100.00
64080;BME280;51042;49.696;10.808;2023-02-03T14:28:48;98906.22;;;6.04;100.00
64080;BME280;51042;49.696;10.808;2023-02-03T14:31:23;98907.41;;;5.99;100.00